KSAD/SAD METAR and TAF weather

Enter ICAO airport designator
Station Type Date Time Source
KSAD METAR 2019/07/17 18:51 UTC NOAA

KSAD 171851Z AUTO 30014G21KT 10SM CLR 37/10 A3003 RMK AO2 SLP104 T03670100


Station Type Date Time Source
KSAD Decoded METAR 2019/07/17 18:51 UTC NOAA

SAFFORD MUNICIPAL AIRPORT, AZ, United States (KSAD) 32-51N 109-38W 962M
Jul 17, 2019 - 02:51 PM EDT / 2019.07.17 1851 UTC
Wind: from the WNW (300 degrees) at 16 MPH (14 KT) gusting to 24 MPH (21 KT):0
Visibility: 10 mile(s):0
Sky conditions: clear
Temperature: 98.1 F (36.7 C)
Heat index: 94.8 F (34.9 C):1
Dew Point: 50.0 F (10.0 C)
Relative Humidity: 19%
Pressure (altimeter): 30.03 in. Hg (1016 hPa)
ob: KSAD 171851Z AUTO 30014G21KT 10SM CLR 37/10 A3003 RMK AO2 SLP104 T03670100
cycle: 19

Station Type Date Time Source
KSAD TAF UTC NOAA

Error!

Example: see airport list